createdAt,value
2023-07-04T00:01:10.984Z,23.4
2023-07-04T00:02:28.010Z,23.4
2023-07-04T00:03:45.054Z,23.3
2023-07-04T00:05:01.970Z,23.1
2023-07-04T00:06:19.095Z,23
2023-07-04T00:07:35.932Z,22.9
2023-07-04T00:08:53.027Z,22.8
2023-07-04T00:10:09.969Z,22.6
2023-07-04T00:11:26.967Z,22.4
2023-07-04T00:12:43.954Z,22.3
2023-07-04T00:14:01.004Z,22.1
2023-07-04T00:15:18.029Z,22
2023-07-04T00:16:35.142Z,21.9
2023-07-04T00:17:51.957Z,21.9
2023-07-04T00:19:08.962Z,22
2023-07-04T00:20:26.000Z,22
2023-07-04T00:21:43.049Z,22.1
2023-07-04T00:22:59.980Z,22.2
2023-07-04T00:24:16.979Z,22.3
2023-07-04T00:25:33.975Z,22.4
2023-07-04T00:26:50.996Z,22.4
2023-07-04T00:28:08.044Z,22.4
2023-07-04T00:29:24.978Z,22.4
2023-07-04T00:30:42.023Z,22.2
2023-07-04T00:31:59.024Z,22
2023-07-04T00:33:16.019Z,21.9
2023-07-04T00:34:32.994Z,21.9
2023-07-04T00:35:50.263Z,21.8
2023-07-04T00:37:07.019Z,21.7
2023-07-04T00:38:24.052Z,21.6
2023-07-04T00:39:41.037Z,21.5
2023-07-04T00:40:58.153Z,21.4
2023-07-04T00:42:14.988Z,21.2
2023-07-04T00:43:32.010Z,21
2023-07-04T00:44:48.998Z,20.9
2023-07-04T00:46:06.076Z,20.8
2023-07-04T00:47:23.072Z,20.7
2023-07-04T00:48:40.100Z,20.7
2023-07-04T00:49:57.104Z,20.7
2023-07-04T00:51:14.093Z,20.8
2023-07-04T00:52:31.050Z,20.9
2023-07-04T00:53:48.211Z,20.9
2023-07-04T00:55:05.034Z,20.9
2023-07-04T00:56:22.066Z,21
2023-07-04T00:57:39.084Z,21
2023-07-04T00:58:56.088Z,21
2023-07-04T01:00:13.039Z,21
2023-07-04T01:01:30.571Z,21.2
2023-07-04T01:02:48.132Z,21.2
2023-07-04T01:04:05.204Z,21.3
2023-07-04T01:05:22.032Z,21.3
2023-07-04T01:06:39.124Z,21.3
2023-07-04T01:07:56.132Z,21.1
2023-07-04T01:09:13.068Z,20.9
2023-07-04T01:10:30.063Z,20.7
2023-07-04T01:11:47.347Z,20.5
2023-07-04T01:13:04.060Z,20.4
2023-07-04T01:14:21.184Z,20.3
2023-07-04T01:15:38.138Z,20.3
2023-07-04T01:16:55.187Z,20.3
2023-07-04T01:18:12.095Z,20.3
2023-07-04T01:19:29.120Z,20.4
2023-07-04T01:20:46.092Z,20.5
2023-07-04T01:22:03.111Z,20.7
2023-07-04T01:23:20.083Z,20.9
2023-07-04T01:24:37.186Z,21
2023-07-04T01:25:54.084Z,21.1
2023-07-04T01:27:11.103Z,21.1
2023-07-04T01:28:28.095Z,21.2
2023-07-04T01:29:45.117Z,21.3
2023-07-04T01:31:02.338Z,21.3
2023-07-04T01:32:19.112Z,21.3
2023-07-04T01:33:36.118Z,21.3
2023-07-04T01:34:53.158Z,21.3
2023-07-04T01:36:10.149Z,21.2
2023-07-04T01:37:27.084Z,21.2
2023-07-04T01:38:44.382Z,21.1
2023-07-04T01:40:01.203Z,20.9
2023-07-04T01:41:18.104Z,20.8
2023-07-04T01:42:35.141Z,20.7
2023-07-04T01:43:52.107Z,20.5
2023-07-04T01:45:09.124Z,20.3
2023-07-04T01:46:26.316Z,20.1
2023-07-04T01:47:43.330Z,20
2023-07-04T01:49:00.154Z,19.9
2023-07-04T01:50:17.141Z,19.7
2023-07-04T01:51:34.357Z,19.7
2023-07-04T01:52:51.125Z,19.7
2023-07-04T01:54:08.226Z,19.8
2023-07-04T01:55:25.125Z,19.8
2023-07-04T01:56:42.243Z,19.8
2023-07-04T01:57:59.131Z,19.8
2023-07-04T01:59:16.282Z,19.9
2023-07-04T02:00:33.138Z,20
2023-07-04T02:01:50.331Z,20
2023-07-04T02:03:07.230Z,20.1
2023-07-04T02:04:24.197Z,20.2
2023-07-04T02:05:41.196Z,20.3
2023-07-04T02:06:58.161Z,20.3
2023-07-04T02:08:15.182Z,20.3
2023-07-04T02:09:32.194Z,20.2
2023-07-04T02:10:49.153Z,20.1
2023-07-04T02:12:06.799Z,20
2023-07-04T02:13:24.240Z,19.9
2023-07-04T02:14:41.147Z,19.9
2023-07-04T02:15:58.344Z,19.9
2023-07-04T02:17:15.226Z,20
2023-07-04T02:18:32.192Z,20.1
2023-07-04T02:19:49.169Z,20.2
2023-07-04T02:21:06.154Z,20.3
2023-07-04T02:22:23.520Z,20.4
2023-07-04T02:23:40.195Z,20.4
2023-07-04T02:24:57.206Z,20.4
2023-07-04T02:26:14.162Z,20.5
2023-07-04T02:27:31.250Z,20.5
2023-07-04T02:28:48.188Z,20.5
2023-07-04T02:30:05.203Z,20.5
2023-07-04T02:31:22.272Z,20.5
2023-07-04T02:32:39.184Z,20.4
2023-07-04T02:33:56.180Z,20.4
2023-07-04T02:35:13.242Z,20.5
2023-07-04T02:36:30.187Z,20.5
2023-07-04T02:37:47.213Z,20.5
2023-07-04T02:39:04.226Z,20.4
2023-07-04T02:40:21.265Z,20.4
2023-07-04T02:41:38.245Z,20.4
2023-07-04T02:42:56.264Z,20.4
2023-07-04T02:44:13.288Z,20.4
2023-07-04T02:45:30.276Z,20.5
2023-07-04T02:46:47.240Z,20.5
2023-07-04T02:48:04.282Z,20.5
2023-07-04T02:49:21.220Z,20.5
2023-07-04T02:50:38.269Z,20.5
2023-07-04T02:51:55.219Z,20.5
2023-07-04T02:53:12.463Z,20.4
2023-07-04T02:54:29.210Z,20.3
2023-07-04T02:55:46.246Z,20.1
2023-07-04T02:57:03.220Z,20
2023-07-04T02:58:20.417Z,19.8
2023-07-04T02:59:37.324Z,19.8
2023-07-04T03:00:54.480Z,19.8
2023-07-04T03:02:11.363Z,19.8
2023-07-04T03:03:29.016Z,19.9
2023-07-04T03:04:46.244Z,20
2023-07-04T03:06:03.237Z,20
2023-07-04T03:07:20.568Z,20
2023-07-04T03:08:37.339Z,20
2023-07-04T03:09:54.286Z,20.1
2023-07-04T03:11:11.271Z,20.1
2023-07-04T03:12:28.422Z,20
2023-07-04T03:13:45.324Z,19.9
2023-07-04T03:15:02.425Z,19.8
2023-07-04T03:16:19.272Z,19.6
2023-07-04T03:17:36.446Z,19.4
2023-07-04T03:18:53.308Z,19.2
2023-07-04T03:20:10.561Z,19
2023-07-04T03:21:27.271Z,18.9
2023-07-04T03:22:44.638Z,18.8
2023-07-04T03:24:01.364Z,18.7
2023-07-04T03:25:18.422Z,18.6
2023-07-04T03:26:35.306Z,18.7
2023-07-04T03:27:52.262Z,18.8
2023-07-04T03:29:09.320Z,19
2023-07-04T03:30:26.562Z,19.2
2023-07-04T03:31:43.279Z,19.4
2023-07-04T03:33:00.462Z,19.5
2023-07-04T03:34:17.287Z,19.7
2023-07-04T03:35:41.690Z,19.8
2023-07-04T03:36:52.528Z,19.9
2023-07-04T03:38:09.402Z,20
2023-07-04T03:39:26.537Z,19.9
2023-07-04T03:40:43.386Z,19.8
2023-07-04T03:42:00.562Z,19.8
2023-07-04T03:43:17.283Z,19.8
2023-07-04T03:44:35.347Z,19.8
2023-07-04T03:45:52.600Z,19.9
2023-07-04T03:47:10.499Z,20.1
2023-07-04T03:48:27.383Z,20.2
2023-07-04T03:49:45.323Z,20.3
2023-07-04T03:51:02.634Z,20.4
2023-07-04T03:52:19.336Z,20.5
2023-07-04T03:53:36.451Z,20.5
2023-07-04T03:54:53.341Z,20.6
2023-07-04T03:56:10.414Z,20.5
2023-07-04T03:57:28.508Z,20.5
2023-07-04T03:58:45.385Z,20.6
2023-07-04T04:00:02.510Z,20.6
2023-07-04T04:01:19.327Z,20.6
2023-07-04T04:02:36.768Z,20.7
2023-07-04T04:03:54.677Z,20.7
2023-07-04T04:05:11.401Z,20.8
2023-07-04T04:06:29.362Z,20.9
2023-07-04T04:07:46.315Z,21
2023-07-04T04:09:03.420Z,21.1
2023-07-04T04:10:20.346Z,21.1
2023-07-04T04:11:37.348Z,20.9
2023-07-04T04:12:54.434Z,20.8
2023-07-04T04:14:11.365Z,20.6
2023-07-04T04:15:28.343Z,20.5
2023-07-04T04:16:45.385Z,20.5
2023-07-04T04:18:02.413Z,20.4
2023-07-04T04:19:19.429Z,20.4
2023-07-04T04:20:36.379Z,20.4
2023-07-04T04:21:53.437Z,20.4
2023-07-04T04:23:10.442Z,20.3
2023-07-04T04:24:27.369Z,20.2
2023-07-04T04:25:44.349Z,20.1
2023-07-04T04:27:01.449Z,20.1
2023-07-04T04:28:18.467Z,20.2
2023-07-04T04:29:35.360Z,20.3
2023-07-04T04:30:52.659Z,20.2
2023-07-04T04:32:09.458Z,20.1
2023-07-04T04:33:26.465Z,20.2
2023-07-04T04:34:43.401Z,20.4
2023-07-04T04:36:00.405Z,20.4
2023-07-04T04:37:17.406Z,20.5
2023-07-04T04:38:34.417Z,20.5
2023-07-04T04:39:51.508Z,20.6
2023-07-04T04:41:08.382Z,20.8
2023-07-04T04:42:25.442Z,21
2023-07-04T04:43:42.411Z,21.1
2023-07-04T04:44:59.476Z,21.2
2023-07-04T04:46:16.551Z,21.3
2023-07-04T04:47:33.519Z,21.4
2023-07-04T04:48:50.414Z,21.5
2023-07-04T04:50:07.472Z,21.5
2023-07-04T04:51:24.491Z,21.6
2023-07-04T04:52:41.397Z,21.6
2023-07-04T04:53:58.423Z,21.8
2023-07-04T04:55:15.410Z,22
2023-07-04T04:56:32.443Z,22.1
2023-07-04T04:57:49.414Z,22.1
2023-07-04T04:59:06.456Z,22.1
2023-07-04T05:00:23.418Z,22.2
2023-07-04T05:01:40.503Z,22.1
2023-07-04T05:02:57.638Z,22
2023-07-04T05:04:14.504Z,22.2
2023-07-04T05:05:31.561Z,22.4
2023-07-04T05:06:48.407Z,22.6
2023-07-04T05:08:05.505Z,22.8
2023-07-04T05:09:22.444Z,22.9
2023-07-04T05:10:39.509Z,22.9
2023-07-04T05:11:56.476Z,22.8
2023-07-04T05:13:13.469Z,22.7
2023-07-04T05:14:30.461Z,22.8
2023-07-04T05:15:47.493Z,22.9
2023-07-04T05:17:04.426Z,22.8
2023-07-04T05:18:21.506Z,22.7
2023-07-04T05:19:38.427Z,22.7
2023-07-04T05:20:55.538Z,22.6
2023-07-04T05:22:12.465Z,22.5
2023-07-04T05:23:29.444Z,22.6
2023-07-04T05:24:46.522Z,22.7
2023-07-04T05:26:03.505Z,22.7
2023-07-04T05:27:20.519Z,22.8
2023-07-04T05:28:37.499Z,22.9
2023-07-04T05:29:54.490Z,23.1
2023-07-04T05:31:13.056Z,23.4
2023-07-04T05:32:28.518Z,23.5
2023-07-04T05:33:45.529Z,23.6
2023-07-04T05:35:02.510Z,23.6
2023-07-04T05:36:19.456Z,23.7
2023-07-04T05:37:36.472Z,23.9
2023-07-04T05:38:53.656Z,24.1
2023-07-04T05:40:10.503Z,24.3
2023-07-04T05:41:27.500Z,24.4
2023-07-04T05:42:44.546Z,24.5
2023-07-04T05:44:01.527Z,24.6
2023-07-04T05:45:18.592Z,24.6
2023-07-04T05:46:35.591Z,24.7
2023-07-04T05:47:52.564Z,24.8
2023-07-04T05:49:09.581Z,24.9
2023-07-04T05:50:26.534Z,25
2023-07-04T05:51:43.521Z,24.9
2023-07-04T05:53:00.521Z,24.8
2023-07-04T05:54:17.514Z,24.7
2023-07-04T05:55:34.494Z,24.6
2023-07-04T05:56:51.546Z,24.5
2023-07-04T05:58:08.539Z,24.5
2023-07-04T05:59:25.572Z,24.6
2023-07-04T06:00:42.581Z,24.8
2023-07-04T06:01:59.601Z,25
2023-07-04T06:03:16.579Z,25.2
2023-07-04T06:04:33.611Z,25.3
2023-07-04T06:05:50.529Z,25.4
2023-07-04T06:07:07.549Z,25.6
2023-07-04T06:08:24.535Z,25.8
2023-07-04T06:09:41.585Z,25.9
2023-07-04T06:10:58.530Z,25.8
2023-07-04T06:12:15.581Z,26
2023-07-04T06:13:32.622Z,26.2
2023-07-04T06:14:49.544Z,26.3
2023-07-04T06:16:06.657Z,26.5
2023-07-04T06:17:23.624Z,26.5
2023-07-04T06:18:40.621Z,26.5
2023-07-04T06:19:57.563Z,26.4
2023-07-04T06:21:14.547Z,26.3
2023-07-04T06:22:33.498Z,26.2
2023-07-04T06:23:48.586Z,26.1
2023-07-04T06:25:05.638Z,26
2023-07-04T06:26:22.578Z,26.1
2023-07-04T06:27:39.624Z,26.2
2023-07-04T06:28:56.629Z,26.3
2023-07-04T06:30:13.601Z,26.3
2023-07-04T06:31:30.766Z,26.5
2023-07-04T06:32:47.622Z,26.6
2023-07-04T06:34:04.627Z,26.8
2023-07-04T06:35:21.626Z,26.9
2023-07-04T06:36:38.596Z,27.1
2023-07-04T06:37:55.816Z,27.1
2023-07-04T06:39:12.589Z,27.3
2023-07-04T06:40:29.649Z,27.3
2023-07-04T06:41:46.614Z,27.5
2023-07-04T06:43:03.710Z,27.5
2023-07-04T06:44:20.578Z,27.6
2023-07-04T06:45:37.654Z,27.6
2023-07-04T06:46:54.669Z,27.6
2023-07-04T06:48:11.692Z,27.7
2023-07-04T06:49:28.657Z,27.7
2023-07-04T06:50:47.010Z,27.8
2023-07-04T06:52:02.669Z,27.9
2023-07-04T06:53:20.371Z,27.8
2023-07-04T06:54:36.626Z,27.7
2023-07-04T06:55:53.736Z,27.7
2023-07-04T06:57:10.823Z,27.8
2023-07-04T06:58:27.633Z,27.8
2023-07-04T06:59:44.694Z,27.8
2023-07-04T07:01:01.643Z,27.8
2023-07-04T07:02:18.926Z,27.8
2023-07-04T07:03:35.659Z,27.8
2023-07-04T07:04:52.681Z,27.9
2023-07-04T07:06:09.747Z,28
2023-07-04T07:07:27.125Z,28.2
2023-07-04T07:08:44.623Z,28.3
2023-07-04T07:10:01.685Z,28.4
2023-07-04T07:11:18.684Z,28.5
2023-07-04T07:12:35.720Z,28.6
2023-07-04T07:13:52.730Z,28.7
2023-07-04T07:15:09.724Z,28.7
2023-07-04T07:16:26.727Z,28.7
2023-07-04T07:17:43.831Z,28.8
2023-07-04T07:19:00.692Z,28.9
2023-07-04T07:20:17.664Z,29
2023-07-04T07:21:34.856Z,29
2023-07-04T07:22:51.665Z,29.1
2023-07-04T07:24:08.692Z,29.4
2023-07-04T07:25:25.768Z,29.6
2023-07-04T07:26:42.866Z,29.8
2023-07-04T07:27:59.672Z,30.1
2023-07-04T07:29:18.126Z,30.1
2023-07-04T07:30:33.696Z,30.1
2023-07-04T07:31:50.831Z,30.1
2023-07-04T07:33:08.188Z,30.3
2023-07-04T07:34:24.683Z,30.4
2023-07-04T07:35:41.673Z,30.5
2023-07-04T07:36:58.738Z,30.6
2023-07-04T07:38:15.760Z,30.6
2023-07-04T07:39:32.701Z,30.5
2023-07-04T07:40:49.799Z,30.6
2023-07-04T07:42:07.020Z,30.6
2023-07-04T07:43:24.726Z,30.6
2023-07-04T07:44:41.785Z,30.8
2023-07-04T07:45:58.694Z,31
2023-07-04T07:47:15.746Z,31.3
2023-07-04T07:48:33.329Z,31.3
2023-07-04T07:49:50.689Z,31.5
2023-07-04T07:51:07.830Z,31.6
2023-07-04T07:52:24.735Z,31.7
2023-07-04T07:53:41.774Z,31.9
2023-07-04T07:54:58.724Z,31.9
2023-07-04T07:56:15.820Z,32.1
2023-07-04T07:57:32.775Z,32
2023-07-04T07:58:50.096Z,32
2023-07-04T08:00:07.799Z,31.9
2023-07-04T08:01:24.968Z,31.9
2023-07-04T08:02:41.865Z,31.9
2023-07-04T08:03:58.928Z,32
2023-07-04T08:05:16.816Z,32
2023-07-04T08:06:33.788Z,32
2023-07-04T08:07:50.752Z,32.1
2023-07-04T08:09:07.856Z,32.1
2023-07-04T08:10:24.903Z,31.9
2023-07-04T08:11:41.801Z,31.9
2023-07-04T08:12:58.743Z,32
2023-07-04T08:14:15.818Z,32.1
2023-07-04T08:15:32.771Z,32.2
2023-07-04T08:16:49.819Z,32.2
2023-07-04T08:18:06.785Z,32.1
2023-07-04T08:19:23.852Z,32
2023-07-04T08:20:40.848Z,31.9
2023-07-04T08:21:57.894Z,31.7
2023-07-04T08:23:14.819Z,31.7
2023-07-04T08:24:31.797Z,31.8
2023-07-04T08:25:48.779Z,31.6
2023-07-04T08:27:05.775Z,31.5
2023-07-04T08:28:22.775Z,31.6
2023-07-04T08:29:39.825Z,31.7
2023-07-04T08:30:56.831Z,31.4
2023-07-04T08:32:13.800Z,31.2
2023-07-04T08:33:30.819Z,31.2
2023-07-04T08:34:47.976Z,31.2
2023-07-04T08:36:05.087Z,31.1
2023-07-04T08:37:21.896Z,31.2
2023-07-04T08:38:38.868Z,31.4
2023-07-04T08:39:55.886Z,31.5
2023-07-04T08:41:12.864Z,31.7
2023-07-04T08:42:29.878Z,31.6
2023-07-04T08:43:46.866Z,31.5
2023-07-04T08:45:03.878Z,31.5
2023-07-04T08:46:20.935Z,31.5
2023-07-04T08:47:38.132Z,31.7
2023-07-04T08:48:54.860Z,32
2023-07-04T08:50:11.896Z,32
2023-07-04T08:51:28.883Z,31.9
2023-07-04T08:52:45.895Z,31.7
2023-07-04T08:54:02.863Z,31.6
2023-07-04T08:55:19.842Z,31.4
2023-07-04T08:56:36.903Z,31.4
2023-07-04T08:57:53.884Z,31.6
2023-07-04T08:59:10.815Z,31.8
2023-07-04T09:00:27.863Z,32
2023-07-04T09:01:45.094Z,32.2
2023-07-04T09:03:02.012Z,32.4
2023-07-04T09:04:18.831Z,32.6
2023-07-04T09:05:36.633Z,32.9
2023-07-04T09:06:53.989Z,33.1
2023-07-04T09:08:10.875Z,33.1
2023-07-04T09:09:27.929Z,33
2023-07-04T09:10:44.873Z,32.9
2023-07-04T09:12:01.881Z,32.8
2023-07-04T09:13:18.853Z,32.7
2023-07-04T09:14:35.870Z,32.7
2023-07-04T09:15:52.974Z,32.8
2023-07-04T09:17:09.958Z,32.8
2023-07-04T09:18:26.888Z,32.8
2023-07-04T09:19:43.952Z,32.8
2023-07-04T09:21:00.987Z,32.7
2023-07-04T09:22:18.155Z,32.7
2023-07-04T09:23:34.920Z,32.8
2023-07-04T09:24:51.905Z,32.6
2023-07-04T09:26:08.912Z,32.4
2023-07-04T09:27:25.901Z,32.1
2023-07-04T09:28:42.941Z,31.8
2023-07-04T09:29:59.923Z,31.6
2023-07-04T09:31:17.043Z,31.4
2023-07-04T09:32:34.004Z,31.4
2023-07-04T09:33:50.882Z,31.4
2023-07-04T09:35:08.074Z,31.5
2023-07-04T09:36:25.448Z,31.5
2023-07-04T09:37:41.984Z,31.3
2023-07-04T09:38:58.337Z,31.5
2023-07-04T09:40:15.077Z,31.8
2023-07-04T09:41:32.052Z,31.9
2023-07-04T09:42:49.115Z,31.8
2023-07-04T09:44:05.919Z,32
2023-07-04T09:45:23.033Z,32.2
2023-07-04T09:46:39.930Z,32.4
2023-07-04T09:47:57.082Z,32.6
2023-07-04T09:49:14.011Z,32.7
2023-07-04T09:50:30.973Z,32.6
2023-07-04T09:51:48.053Z,32.6
2023-07-04T09:53:05.027Z,32.6
2023-07-04T09:54:21.329Z,32.6
2023-07-04T09:55:38.395Z,32.6
2023-07-04T09:56:56.236Z,32.8
2023-07-04T09:58:12.950Z,32.9
2023-07-04T09:59:29.989Z,32.8
2023-07-04T10:00:47.003Z,32.5
2023-07-04T10:02:04.062Z,32.2
2023-07-04T10:03:21.092Z,32.1
2023-07-04T10:04:38.031Z,32.1
2023-07-04T10:05:54.956Z,32.1
2023-07-04T10:07:12.037Z,32.2
2023-07-04T10:08:28.964Z,32.4
2023-07-04T10:09:46.162Z,32.5
2023-07-04T10:11:03.031Z,32.4
2023-07-04T10:12:19.970Z,32.6
2023-07-04T10:13:37.148Z,32.7
2023-07-04T10:14:54.012Z,32.8
2023-07-04T10:16:11.137Z,32.6
2023-07-04T10:17:28.099Z,32.5
2023-07-04T10:18:45.014Z,32.5
2023-07-04T10:20:02.053Z,32.3
2023-07-04T10:21:18.997Z,32.3
2023-07-04T10:22:35.425Z,32.3
2023-07-04T10:23:52.404Z,32.4
2023-07-04T10:25:10.005Z,32.6
2023-07-04T10:26:27.150Z,32.6
2023-07-04T10:27:43.994Z,32.6
2023-07-04T10:29:00.454Z,32.3
2023-07-04T10:30:17.403Z,32.2
2023-07-04T10:31:35.088Z,32.4
2023-07-04T10:32:52.086Z,32.5
2023-07-04T10:34:09.010Z,32.4
2023-07-04T10:35:26.002Z,32.4
2023-07-04T10:36:43.010Z,32.2
2023-07-04T10:38:00.052Z,32
2023-07-04T10:39:16.477Z,32
2023-07-04T10:40:33.391Z,32.2
2023-07-04T10:41:51.032Z,32.4
2023-07-04T10:43:07.472Z,32.6
2023-07-04T10:44:25.044Z,32.9
2023-07-04T10:45:45.047Z,32.9
2023-07-04T10:46:59.070Z,32.7
2023-07-04T10:48:15.453Z,32.5
2023-07-04T10:49:32.454Z,32.7
2023-07-04T10:50:50.192Z,33
2023-07-04T10:52:06.432Z,33.3
2023-07-04T10:53:24.161Z,33.4
2023-07-04T10:54:40.459Z,33.7
2023-07-04T10:55:58.045Z,33.7
2023-07-04T10:57:15.095Z,33.9
2023-07-04T10:58:31.500Z,34
2023-07-04T10:59:48.438Z,33.7
2023-07-04T11:01:05.510Z,33.6
2023-07-04T11:02:22.068Z,33.7
2023-07-04T11:03:38.541Z,33.6
2023-07-04T11:04:55.479Z,33.7
2023-07-04T11:06:13.088Z,33.7
2023-07-04T11:07:30.110Z,33.7
2023-07-04T11:08:46.507Z,33.4
2023-07-04T11:10:02.516Z,33.5
2023-07-04T11:11:19.365Z,33.6
2023-07-04T11:12:37.104Z,33.7
2023-07-04T11:13:54.435Z,33.4
2023-07-04T11:15:13.118Z,33
2023-07-04T11:16:30.092Z,32.8
2023-07-04T11:17:47.099Z,32.9
2023-07-04T11:19:04.157Z,32.9
2023-07-04T11:20:21.481Z,32.8
2023-07-04T11:21:39.267Z,32.7
2023-07-04T11:23:03.724Z,32.7
2023-07-04T11:24:12.749Z,32.6
2023-07-04T11:25:30.205Z,32.6
2023-07-04T11:26:48.123Z,32.7
2023-07-04T11:28:04.526Z,32.8
2023-07-04T11:29:21.558Z,32.9
2023-07-04T11:30:39.224Z,32.9
2023-07-04T11:31:56.130Z,33
2023-07-04T11:33:13.144Z,32.9
2023-07-04T11:34:30.245Z,32.8
2023-07-04T11:35:47.135Z,32.7
2023-07-04T11:37:03.546Z,32.6
2023-07-04T11:38:20.528Z,32.6
2023-07-04T11:39:37.651Z,33
2023-07-04T11:40:54.629Z,33.5
2023-07-04T11:42:11.524Z,34.1
2023-07-04T11:43:27.560Z,34.7
2023-07-04T11:44:44.560Z,34.9
2023-07-04T11:46:00.583Z,34.5
2023-07-04T11:47:17.566Z,34.4
2023-07-04T11:48:34.539Z,34.5
2023-07-04T11:49:50.575Z,34.6
2023-07-04T11:51:07.547Z,34.9
2023-07-04T11:52:24.623Z,35.3
2023-07-04T11:53:41.546Z,35.4
2023-07-04T11:54:58.613Z,35.5
2023-07-04T11:56:14.578Z,35.5
2023-07-04T11:57:31.586Z,35.4
2023-07-04T11:58:49.729Z,35.3
2023-07-04T12:00:04.640Z,35.1
2023-07-04T12:01:20.540Z,34.9
2023-07-04T12:02:38.237Z,34.5
2023-07-04T12:03:54.659Z,34.1
2023-07-04T12:05:12.253Z,33.8
2023-07-04T12:06:28.590Z,33.4
2023-07-04T12:07:45.704Z,32.9
2023-07-04T12:09:02.570Z,32.8
2023-07-04T12:10:18.621Z,32.8
2023-07-04T12:11:35.551Z,32.9
2023-07-04T12:12:52.636Z,33.4
2023-07-04T12:14:09.593Z,33.9
2023-07-04T12:15:26.622Z,34
2023-07-04T12:16:43.678Z,34.3
2023-07-04T12:18:00.641Z,34.5
2023-07-04T12:19:17.214Z,34.6
2023-07-04T12:20:34.258Z,34.5
2023-07-04T12:21:50.641Z,34.3
2023-07-04T12:23:07.578Z,34.1
2023-07-04T12:24:24.643Z,34
2023-07-04T12:25:40.673Z,33.8
2023-07-04T12:26:57.592Z,33.8
2023-07-04T12:28:13.698Z,33.7
2023-07-04T12:30:53.613Z,33.8
2023-07-04T12:32:04.615Z,33.7
2023-07-04T12:33:20.621Z,33.5
2023-07-04T12:35:54.720Z,33.6
2023-07-04T12:37:11.700Z,33.8
2023-07-04T12:38:28.771Z,34.1
2023-07-04T12:39:44.650Z,34.3
2023-07-04T12:41:01.660Z,34.3
2023-07-04T12:42:18.698Z,34.6
2023-07-04T12:44:53.264Z,34.9
2023-07-04T12:47:27.894Z,34.6
2023-07-04T12:50:03.301Z,34.3
2023-07-04T12:51:17.979Z,34
2023-07-04T12:52:34.682Z,33.8
2023-07-04T12:53:51.714Z,33.8
2023-07-04T12:55:07.732Z,33.8
2023-07-04T12:56:23.702Z,34
2023-07-04T12:57:40.324Z,34.2
2023-07-04T12:58:56.653Z,34.3
2023-07-04T13:00:13.808Z,34.4
2023-07-04T13:01:30.743Z,34.7
2023-07-04T13:02:46.793Z,35.2
2023-07-04T13:04:04.406Z,35.4
2023-07-04T13:05:20.653Z,35.4
2023-07-04T13:06:36.697Z,35.2
2023-07-04T13:07:54.398Z,35.1
2023-07-04T13:09:10.660Z,35.1
2023-07-04T13:10:26.682Z,35.1
2023-07-04T13:11:43.863Z,35.1
2023-07-04T13:12:59.710Z,35.1
2023-07-04T13:14:16.705Z,35.3
2023-07-04T13:15:32.741Z,35.5
2023-07-04T13:16:50.019Z,35.7
2023-07-04T13:18:06.796Z,35.7
2023-07-04T13:19:24.351Z,35.7
2023-07-04T13:20:40.709Z,35.5
2023-07-04T13:21:56.791Z,35.3
2023-07-04T13:25:49.349Z,34.7
2023-07-04T13:27:13.054Z,34.6
2023-07-04T13:32:59.231Z,34.2
2023-07-04T13:33:26.742Z,34.1
2023-07-04T13:34:42.724Z,34.1
2023-07-04T13:35:59.376Z,34.2
2023-07-04T13:37:15.878Z,34.3
2023-07-04T13:39:53.303Z,34.7
2023-07-04T13:41:07.404Z,34.7
2023-07-04T13:42:24.441Z,34.7
2023-07-04T13:46:15.453Z,34.4
2023-07-04T13:47:32.412Z,34.2
2023-07-04T13:48:49.402Z,33.8
2023-07-04T13:50:06.719Z,33.5
2023-07-04T13:51:24.412Z,33.3
2023-07-04T13:52:41.432Z,33.2
2023-07-04T13:53:58.423Z,33.2
2023-07-04T13:55:15.408Z,33.3
2023-07-04T13:56:32.447Z,33.3
2023-07-04T13:57:49.538Z,33.3
2023-07-04T13:59:06.413Z,33.5
2023-07-04T14:00:27.715Z,33.5
2023-07-04T14:06:48.486Z,33.2
2023-07-04T14:08:05.426Z,33.2
2023-07-04T14:09:22.584Z,33.3
2023-07-04T14:10:39.415Z,33.3
2023-07-04T14:11:56.505Z,33.3
2023-07-04T14:13:13.563Z,33.3
2023-07-04T14:20:55.775Z,33.5
2023-07-04T14:22:12.520Z,33.7
2023-07-04T14:23:29.527Z,34
2023-07-04T14:24:46.483Z,34.3
2023-07-04T14:26:03.509Z,34.6
2023-07-04T14:27:34.283Z,34.7
2023-07-04T14:28:37.500Z,34.4
2023-07-04T14:29:54.443Z,34.3
2023-07-04T14:31:11.582Z,34.2
2023-07-04T14:32:28.513Z,34.2
2023-07-04T14:33:45.507Z,34.3
2023-07-04T14:35:02.499Z,34.3
2023-07-04T14:36:19.503Z,34
2023-07-04T14:37:36.578Z,33.9
2023-07-04T14:38:53.965Z,33.9
2023-07-04T14:42:29.732Z,33.9
2023-07-04T14:42:48.860Z,34.2
2023-07-04T14:44:02.614Z,34.3
2023-07-04T14:45:19.650Z,34.5
2023-07-04T14:46:36.536Z,34.6
2023-07-04T14:47:53.519Z,34.4
2023-07-04T14:49:10.512Z,34.2
2023-07-04T14:50:27.513Z,33.9
2023-07-04T14:51:44.550Z,33.6
2023-07-04T14:53:01.511Z,33.5
2023-07-04T14:54:18.479Z,33.6
2023-07-04T14:55:35.602Z,33.7
2023-07-04T14:56:52.537Z,33.8
2023-07-04T14:58:09.516Z,34
2023-07-04T14:59:26.611Z,34
2023-07-04T15:00:43.534Z,33.9
2023-07-04T15:02:00.528Z,34
2023-07-04T15:03:17.717Z,34
2023-07-04T15:04:35.761Z,33.8
2023-07-04T15:05:53.409Z,33.9
2023-07-04T15:07:11.701Z,33.8
2023-07-04T15:08:28.617Z,33.7
2023-07-04T15:09:45.533Z,33.4
2023-07-04T15:11:02.604Z,33.3
2023-07-04T15:12:19.508Z,33.3
2023-07-04T15:13:36.606Z,33.2
2023-07-04T15:14:53.583Z,33.2
2023-07-04T15:16:10.557Z,33.2
2023-07-04T15:17:27.630Z,33.3
2023-07-04T15:18:44.673Z,33.3
2023-07-04T15:20:01.611Z,33.4
2023-07-04T15:21:18.571Z,33.5
2023-07-04T15:22:35.541Z,33.4
2023-07-04T15:23:52.644Z,33.4
2023-07-04T15:25:09.812Z,33.4
2023-07-04T15:26:28.007Z,33.3
2023-07-04T15:27:43.724Z,33.4
2023-07-04T15:29:00.583Z,33.5
2023-07-04T15:30:17.625Z,33.7
2023-07-04T15:31:34.570Z,33.8
2023-07-04T15:32:51.653Z,34.1
2023-07-04T15:34:08.708Z,34.2
2023-07-04T15:35:25.897Z,34.2
2023-07-04T15:36:43.655Z,34.2
2023-07-04T15:38:00.604Z,34.2
2023-07-04T15:39:20.788Z,34.3
2023-07-04T15:40:38.683Z,34.2
2023-07-04T15:41:55.769Z,34.2
2023-07-04T15:43:12.697Z,34.2
2023-07-04T15:44:29.765Z,34.2
2023-07-04T15:45:46.682Z,34.1
2023-07-04T15:47:03.695Z,34
2023-07-04T15:48:20.619Z,33.7
2023-07-04T15:49:37.745Z,33.4
2023-07-04T15:50:54.596Z,33.4
2023-07-04T15:52:11.638Z,33.5
2023-07-04T15:53:28.621Z,33.5
2023-07-04T15:54:45.656Z,33.6
2023-07-04T15:56:02.628Z,33.6
2023-07-04T15:57:19.905Z,33.6
2023-07-04T15:58:36.630Z,33.7
2023-07-04T15:59:53.668Z,33.6
2023-07-04T16:01:10.660Z,33.5
2023-07-04T16:02:27.779Z,33.3
2023-07-04T16:03:44.698Z,33.1
2023-07-04T16:05:01.739Z,33
2023-07-04T16:06:18.743Z,32.8
2023-07-04T16:07:35.670Z,32.7
2023-07-04T16:08:52.654Z,32.6
2023-07-04T16:10:09.629Z,32.7
2023-07-04T16:11:26.661Z,32.6
2023-07-04T16:12:43.642Z,32.5
2023-07-04T16:14:00.721Z,32.4
2023-07-04T16:15:17.713Z,32.1
2023-07-04T16:16:34.775Z,32
2023-07-04T16:17:51.762Z,32
2023-07-04T16:19:08.693Z,31.8
2023-07-04T16:20:26.602Z,31.7
2023-07-04T16:21:42.722Z,31.7
2023-07-04T16:22:59.675Z,32
2023-07-04T16:24:16.736Z,32.3
2023-07-04T16:25:33.662Z,32.7
2023-07-04T16:26:50.677Z,33
2023-07-04T16:28:07.655Z,33
2023-07-04T16:29:24.780Z,33.2
2023-07-04T16:30:41.746Z,33.4
2023-07-04T16:31:58.940Z,33.4
2023-07-04T16:33:15.699Z,33.3
2023-07-04T16:34:32.931Z,33
2023-07-04T16:35:49.799Z,32.8
2023-07-04T16:37:06.694Z,32.7
2023-07-04T16:38:24.445Z,32.5
2023-07-04T16:39:40.753Z,32.4
2023-07-04T16:40:57.671Z,32.3
2023-07-04T16:42:14.680Z,32.2
2023-07-04T16:43:31.766Z,32.1
2023-07-04T16:44:48.787Z,32.1
2023-07-04T16:46:05.706Z,32.1
2023-07-04T16:47:22.787Z,32.1
2023-07-04T16:48:40.168Z,32.1
2023-07-04T16:49:57.815Z,32.1
2023-07-04T16:51:14.740Z,32
2023-07-04T16:52:31.703Z,31.9
2023-07-04T16:53:48.797Z,32
2023-07-04T16:55:05.874Z,32.1
2023-07-04T16:56:24.869Z,32.1
2023-07-04T16:57:39.716Z,32.2
2023-07-04T16:58:56.706Z,32.4
2023-07-04T17:00:13.854Z,32.5
2023-07-04T17:01:30.825Z,32.6
2023-07-04T17:02:47.851Z,32.7
2023-07-04T17:04:04.769Z,32.9
2023-07-04T17:05:21.776Z,32.9
2023-07-04T17:06:38.725Z,32.9
2023-07-04T17:07:55.803Z,32.8
2023-07-04T17:09:13.432Z,32.9
2023-07-04T17:10:29.921Z,32.8
2023-07-04T17:11:46.757Z,32.8
2023-07-04T17:13:03.897Z,32.6
2023-07-04T17:14:20.909Z,32.3
2023-07-04T17:15:37.890Z,32.1
2023-07-04T17:16:54.788Z,32.1
2023-07-04T17:18:11.875Z,32.2
2023-07-04T17:19:28.761Z,32.3
2023-07-04T17:20:45.837Z,32.3
2023-07-04T17:22:02.847Z,32.3
2023-07-04T17:23:19.815Z,32.2
2023-07-04T17:24:36.835Z,32.2
2023-07-04T17:25:54.122Z,32.1
2023-07-04T17:27:11.116Z,31.9
2023-07-04T17:28:28.798Z,31.7
2023-07-04T17:29:45.789Z,31.5
2023-07-04T17:31:02.878Z,31.4
2023-07-04T17:32:19.876Z,31.5
2023-07-04T17:33:36.809Z,31.5
2023-07-04T17:34:53.917Z,31.5
2023-07-04T17:36:10.841Z,31.6
2023-07-04T17:37:27.960Z,31.7
2023-07-04T17:38:44.810Z,31.8
2023-07-04T17:40:01.866Z,31.6
2023-07-04T17:41:18.810Z,31.4